Time;durP1;ratioP1;P1;durP2;ratioP2;P2;SDS_P1;SDS_P2;PMS_P1;PMS_P2;Temp;Humidity;BMP_temperature;BMP_pressure;BME280_temperature;BME280_humidity;BME280_pressure;Samples;Min_cycle;Max_cycle;Signal;HPM_P1;HPM_P2
2022/07/20 00:02:14;;;;;;;0.60;0.60;;;21.00;94.00;;;;;;4985464;28;20434;-78
2022/07/20 00:04:41;;;;;;;0.73;0.73;;;21.00;93.80;;;;;;4985643;28;20435;-78
2022/07/20 00:07:08;;;;;;;0.77;0.77;;;20.90;93.90;;;;;;4976070;28;20428;-78
2022/07/20 00:12:20;;;;;;;0.73;0.73;;;20.80;94.10;;;;;;4993072;28;20426;-78
2022/07/20 00:14:46;;;;;;;0.67;0.67;;;20.80;94.20;;;;;;4993250;28;20455;-78
2022/07/20 00:17:14;;;;;;;0.98;0.75;;;20.90;94.20;;;;;;4975927;28;20526;-79
2022/07/20 00:19:41;;;;;;;0.60;0.60;;;20.90;94.10;;;;;;4970050;28;20848;-78
2022/07/20 00:22:10;;;;;;;0.60;0.60;;;20.90;94.10;;;;;;4983835;28;20432;-78
2022/07/20 00:24:37;;;;;;;0.60;0.60;;;20.90;94.20;;;;;;4989787;28;20432;-78
2022/07/20 00:27:04;;;;;;;0.75;0.75;;;20.90;94.20;;;;;;4992203;28;20445;-79
2022/07/20 00:29:31;;;;;;;0.60;0.60;;;20.90;94.30;;;;;;4973873;28;20438;-79
2022/07/20 00:31:58;;;;;;;0.60;0.60;;;20.80;94.40;;;;;;4990466;28;20936;-78
2022/07/20 00:34:25;;;;;;;0.73;0.73;;;20.80;94.50;;;;;;4991015;28;20525;-78
2022/07/20 00:36:52;;;;;;;0.55;0.52;;;20.80;94.50;;;;;;4973035;28;20488;-78
2022/07/20 00:39:18;;;;;;;0.60;0.60;;;20.80;94.10;;;;;;4970721;28;20449;-78
2022/07/20 00:41:45;;;;;;;0.50;0.50;;;20.90;93.90;;;;;;4988488;28;20428;-78
2022/07/20 00:44:12;;;;;;;1.70;0.80;;;20.80;94.00;;;;;;4984078;28;20937;-78
2022/07/20 00:46:44;;;;;;;0.60;0.60;;;20.60;94.10;;;;;;4985270;28;20947;-78
2022/07/20 00:49:13;;;;;;;0.70;0.70;;;20.40;94.30;;;;;;4986106;28;20430;-77
2022/07/20 00:51:44;;;;;;;0.63;0.63;;;20.10;94.50;;;;;;4971766;28;20557;-77
2022/07/20 00:54:11;;;;;;;0.70;0.70;;;19.80;94.80;;;;;;4988035;28;20448;-78
2022/07/20 00:56:38;;;;;;;0.90;0.90;;;19.70;95.30;;;;;;4981390;28;20986;-79
2022/07/20 00:59:07;;;;;;;0.50;0.50;;;19.40;96.00;;;;;;4978731;28;20800;-79
2022/07/20 01:01:34;;;;;;;0.80;0.80;;;19.30;96.10;;;;;;4986253;28;20517;-78
2022/07/20 01:04:01;;;;;;;0.77;0.77;;;19.30;96.20;;;;;;4979631;28;20899;-78
2022/07/20 01:06:29;;;;;;;0.88;0.88;;;19.40;96.20;;;;;;4989391;28;20503;-78
2022/07/20 01:08:56;;;;;;;0.70;0.70;;;19.50;95.90;;;;;;4988150;28;20434;-80
2022/07/20 01:11:23;;;;;;;0.80;0.80;;;19.70;95.90;;;;;;4991945;28;20468;-79
2022/07/20 01:13:50;;;;;;;0.60;0.60;;;19.80;95.80;;;;;;4985302;28;20444;-78
2022/07/20 01:16:19;;;;;;;0.90;0.90;;;19.90;95.70;;;;;;4966342;28;20955;-79
2022/07/20 01:18:46;;;;;;;0.82;0.82;;;20.00;95.60;;;;;;4969859;28;20442;-79
2022/07/20 01:21:17;;;;;;;0.85;0.85;;;20.10;95.50;;;;;;4989856;28;20509;-78
2022/07/20 01:23:44;;;;;;;0.70;0.70;;;20.30;95.40;;;;;;4988973;28;20963;-79
2022/07/20 01:26:10;;;;;;;0.90;0.90;;;20.40;95.20;;;;;;4988087;28;20504;-79
2022/07/20 01:28:37;;;;;;;1.05;0.95;;;20.50;95.10;;;;;;4976967;28;20437;-79
2022/07/20 01:31:04;;;;;;;0.70;0.70;;;20.50;95.00;;;;;;4989506;28;20456;-80
2022/07/20 01:33:31;;;;;;;0.87;0.87;;;20.60;94.90;;;;;;4975611;28;20436;-79
2022/07/20 01:35:58;;;;;;;0.70;0.70;;;20.60;95.00;;;;;;4980073;28;20855;-79
2022/07/20 01:38:28;;;;;;;0.90;0.90;;;20.60;95.00;;;;;;4987471;28;20440;-79
2022/07/20 01:40:55;;;;;;;0.80;0.80;;;20.60;95.00;;;;;;4988700;28;20442;-79
2022/07/20 01:43:21;;;;;;;0.85;0.70;;;20.60;95.10;;;;;;4972471;28;20804;-79
2022/07/20 01:45:51;;;;;;;0.77;0.77;;;20.60;95.10;;;;;;4977075;28;20433;-79
2022/07/20 01:48:21;;;;;;;0.63;0.63;;;20.60;95.30;;;;;;4985230;28;20925;-79
2022/07/20 01:50:53;;;;;;;0.70;0.70;;;20.50;95.40;;;;;;4973733;28;20972;-79
2022/07/20 01:53:20;;;;;;;0.80;0.80;;;20.30;95.50;;;;;;4975482;28;20435;-79
2022/07/20 01:55:46;;;;;;;1.00;1.00;;;20.10;95.60;;;;;;4989436;28;21017;-79
2022/07/20 01:58:13;;;;;;;1.27;1.17;;;20.00;95.70;;;;;;4988852;28;20445;-79
2022/07/20 02:00:41;;;;;;;1.05;0.75;;;19.90;95.90;;;;;;4987577;28;20442;-79
2022/07/20 02:03:08;;;;;;;0.80;0.80;;;19.80;96.10;;;;;;4985177;28;20447;-79
2022/07/20 02:05:35;;;;;;;1.13;1.05;;;19.80;96.10;;;;;;4987447;28;20525;-78
2022/07/20 02:08:02;;;;;;;0.75;0.75;;;19.70;96.10;;;;;;4989649;28;20434;-78
2022/07/20 02:10:28;;;;;;;0.68;0.68;;;19.70;96.10;;;;;;4991151;28;20522;-77
2022/07/20 02:12:58;;;;;;;0.77;0.77;;;19.60;96.30;;;;;;4985425;28;20426;-77
2022/07/20 02:18:12;;;;;;;0.80;0.80;;;19.70;96.30;;;;;;4987404;28;20434;-78
2022/07/20 02:20:40;;;;;;;0.70;0.70;;;19.70;96.40;;;;;;4986074;28;20461;-79
2022/07/20 02:23:11;;;;;;;0.80;0.80;;;19.70;96.30;;;;;;4982485;28;20517;-78
2022/07/20 02:25:38;;;;;;;0.95;0.95;;;19.80;96.20;;;;;;4976170;28;20516;-78
2022/07/20 02:28:06;;;;;;;0.80;0.80;;;19.90;96.40;;;;;;4987724;28;20465;-78
2022/07/20 02:30:34;;;;;;;0.97;0.97;;;19.90;96.50;;;;;;4985946;28;21205;-78
2022/07/20 02:33:01;;;;;;;0.75;0.65;;;19.80;96.30;;;;;;4986956;28;20438;-78
2022/07/20 02:35:28;;;;;;;0.80;0.80;;;19.70;96.40;;;;;;4983958;28;20522;-78
2022/07/20 02:37:55;;;;;;;0.80;0.80;;;19.70;96.40;;;;;;4987603;28;20858;-78
2022/07/20 02:40:25;;;;;;;1.50;0.93;;;19.70;96.40;;;;;;4967851;28;20437;-80
2022/07/20 02:42:52;;;;;;;0.80;0.80;;;19.60;96.70;;;;;;4980168;28;20972;-80
2022/07/20 02:45:18;;;;;;;0.90;0.90;;;19.50;96.60;;;;;;4984323;28;20463;-80
2022/07/20 02:47:46;;;;;;;0.80;0.75;;;19.60;96.70;;;;;;4986643;28;20465;-80
2022/07/20 02:50:14;;;;;;;0.63;0.63;;;19.50;96.60;;;;;;4986251;28;20965;-80
2022/07/20 02:52:42;;;;;;;0.70;0.70;;;19.50;96.50;;;;;;4979622;28;20437;-80
2022/07/20 02:55:09;;;;;;;0.80;0.80;;;19.60;96.90;;;;;;4983573;28;20461;-80
2022/07/20 02:57:37;;;;;;;0.82;0.82;;;19.70;96.50;;;;;;4964573;28;21111;-80
2022/07/20 03:00:08;;;;;;;0.80;0.80;;;19.70;96.50;;;;;;4983512;28;20951;-80
2022/07/20 03:02:35;;;;;;;0.88;0.88;;;19.60;96.30;;;;;;4986313;28;20442;-80
2022/07/20 03:05:02;;;;;;;0.70;0.70;;;19.50;96.40;;;;;;4990843;28;20456;-79
2022/07/20 03:07:29;;;;;;;0.90;0.75;;;19.40;96.60;;;;;;4990213;28;20801;-79
2022/07/20 03:09:56;;;;;;;0.90;0.90;;;19.30;96.70;;;;;;4978769;28;20437;-79
2022/07/20 03:12:22;;;;;;;0.70;0.70;;;19.20;96.80;;;;;;4985787;28;20452;-79
2022/07/20 03:14:49;;;;;;;1.13;1.02;;;19.00;96.90;;;;;;4983695;28;20476;-80
2022/07/20 03:17:16;;;;;;;1.80;0.70;;;18.90;97.00;;;;;;4980505;28;20946;-79
2022/07/20 03:19:44;;;;;;;0.73;0.70;;;19.00;97.40;;;;;;4987369;28;20500;-80
2022/07/20 03:22:11;;;;;;;0.95;0.95;;;18.90;97.40;;;;;;4988088;28;20441;-80
2022/07/20 03:24:38;;;;;;;0.88;0.88;;;18.90;97.40;;;;;;4986813;28;20450;-79
2022/07/20 03:27:05;;;;;;;0.82;0.82;;;19.00;97.40;;;;;;4986988;28;20774;-79
2022/07/20 03:29:31;;;;;;;0.68;0.68;;;19.10;97.40;;;;;;4975443;28;20441;-80
2022/07/20 03:31:58;;;;;;;1.00;1.00;;;19.20;97.30;;;;;;4984997;28;20441;-80
2022/07/20 03:34:25;;;;;;;0.87;0.87;;;19.20;97.30;;;;;;4987842;28;20931;-80
2022/07/20 03:36:52;;;;;;;0.70;0.70;;;19.10;97.30;;;;;;4982264;28;20438;-79
2022/07/20 03:39:22;;;;;;;1.13;1.02;;;19.10;97.50;;;;;;4997115;28;20438;-80
2022/07/20 03:41:49;;;;;;;0.80;0.80;;;19.20;97.50;;;;;;4990881;28;20443;-79
2022/07/20 03:44:16;;;;;;;0.70;0.70;;;19.20;97.50;;;;;;4987589;28;20445;-79
2022/07/20 03:46:42;;;;;;;0.75;0.75;;;19.20;97.50;;;;;;4987878;28;20449;-80
2022/07/20 03:49:12;;;;;;;0.77;0.77;;;19.30;97.40;;;;;;4993080;28;20521;-78
2022/07/20 03:51:39;;;;;;;1.00;1.00;;;19.50;97.30;;;;;;4974383;28;20443;-78
2022/07/20 03:54:07;;;;;;;0.80;0.80;;;19.60;97.30;;;;;;4990162;28;20440;-79
2022/07/20 03:56:39;;;;;;;0.90;0.90;;;19.70;97.10;;;;;;4988692;28;20430;-79
2022/07/20 03:59:08;;;;;;;1.05;1.05;;;19.70;97.20;;;;;;4973970;28;21026;-79
2022/07/20 04:01:35;;;;;;;0.90;0.90;;;19.70;97.20;;;;;;4984301;28;20448;-79
2022/07/20 04:04:02;;;;;;;0.70;0.70;;;19.70;97.40;;;;;;4987409;28;20434;-79
2022/07/20 04:06:29;;;;;;;0.75;0.75;;;19.80;97.70;;;;;;4980326;28;20799;-79
2022/07/20 04:08:56;;;;;;;0.75;0.75;;;19.90;97.20;;;;;;4986548;28;20444;-79
2022/07/20 04:11:24;;;;;;;0.90;0.90;;;20.00;97.10;;;;;;4974111;28;20428;-79
2022/07/20 04:13:51;;;;;;;0.93;0.55;;;20.10;97.10;;;;;;4987786;28;20962;-80
2022/07/20 04:16:18;;;;;;;1.00;0.80;;;20.10;96.90;;;;;;4988613;28;20433;-79
2022/07/20 04:18:45;;;;;;;1.20;0.77;;;20.30;96.80;;;;;;4975852;28;20533;-79
2022/07/20 04:21:15;;;;;;;1.00;0.90;;;20.30;96.60;;;;;;4980120;28;20443;-78
2022/07/20 04:23:43;;;;;;;1.10;1.00;;;20.40;96.70;;;;;;4975018;28;20449;-80
2022/07/20 04:26:14;;;;;;;1.17;0.80;;;20.40;96.70;;;;;;4963726;28;20475;-78
2022/07/20 04:28:41;;;;;;;1.10;0.80;;;20.40;96.70;;;;;;4968300;28;20434;-79
2022/07/20 04:31:08;;;;;;;0.75;0.75;;;20.50;96.50;;;;;;4970650;28;20836;-80
2022/07/20 04:33:35;;;;;;;0.63;0.63;;;20.50;96.60;;;;;;4964807;28;20434;-79
2022/07/20 04:36:01;;;;;;;0.87;0.87;;;20.60;96.50;;;;;;4993862;28;20469;-79
2022/07/20 04:38:28;;;;;;;0.70;0.63;;;20.60;96.30;;;;;;4982158;28;20441;-79
2022/07/20 04:40:55;;;;;;;0.77;0.77;;;20.70;96.20;;;;;;4972889;28;20450;-79
2022/07/20 04:43:23;;;;;;;0.95;0.95;;;20.80;96.50;;;;;;4975571;28;20427;-79
2022/07/20 04:45:49;;;;;;;0.93;0.90;;;20.80;96.50;;;;;;4989421;28;20491;-79
2022/07/20 04:48:23;;;;;;;0.70;0.70;;;21.00;96.70;;;;;;4993115;28;20466;-80
2022/07/20 04:50:53;;;;;;;1.20;0.75;;;21.50;96.40;;;;;;4984622;28;20545;-79
2022/07/20 04:53:20;;;;;;;0.87;0.87;;;22.30;96.10;;;;;;4988747;28;20432;-80
2022/07/20 04:55:46;;;;;;;0.70;0.70;;;23.10;95.40;;;;;;4993507;28;20977;-80
2022/07/20 04:58:14;;;;;;;0.77;0.77;;;23.80;93.90;;;;;;4986370;28;20449;-81
2022/07/20 05:00:40;;;;;;;0.60;0.60;;;24.30;93.20;;;;;;4985100;28;20504;-80
2022/07/20 05:03:07;;;;;;;0.68;0.68;;;24.90;93.00;;;;;;4985608;28;20438;-80
2022/07/20 05:05:34;;;;;;;0.70;0.70;;;25.40;92.40;;;;;;4987354;28;20963;-80
2022/07/20 05:08:02;;;;;;;0.70;0.70;;;25.90;91.50;;;;;;4988802;28;20434;-81
2022/07/20 05:10:32;;;;;;;0.70;0.70;;;26.20;91.60;;;;;;4983273;28;20442;-80
2022/07/20 05:12:59;;;;;;;0.70;0.70;;;26.80;91.10;;;;;;4985178;28;20438;-80
2022/07/20 05:15:29;;;;;;;0.50;0.50;;;27.40;90.90;;;;;;4973583;28;20453;-81
2022/07/20 05:17:55;;;;;;;0.85;0.85;;;28.00;89.60;;;;;;4980007;28;20467;-79
2022/07/20 05:20:25;;;;;;;0.90;0.83;;;28.40;88.10;;;;;;4985866;28;20952;-78
2022/07/20 05:22:52;;;;;;;0.70;0.70;;;28.70;87.80;;;;;;4973041;28;20801;-79
2022/07/20 05:25:18;;;;;;;0.90;0.90;;;29.00;86.30;;;;;;4982608;28;20445;-79
2022/07/20 05:27:51;;;;;;;1.00;1.00;;;29.10;86.10;;;;;;4982449;28;20541;-81
2022/07/20 05:30:18;;;;;;;0.73;0.73;;;29.10;85.60;;;;;;4988111;28;20701;-81
2022/07/20 05:32:44;;;;;;;0.60;0.60;;;29.30;85.60;;;;;;4982232;28;20820;-82
2022/07/20 05:35:11;;;;;;;0.70;0.70;;;29.50;85.20;;;;;;4978020;28;20921;-82
2022/07/20 05:37:38;;;;;;;0.77;0.77;;;29.70;85.40;;;;;;4986105;28;20447;-82
2022/07/20 05:40:08;;;;;;;0.80;0.80;;;29.80;84.60;;;;;;4986931;28;21174;-82
2022/07/20 05:42:37;;;;;;;0.90;0.90;;;29.80;84.10;;;;;;4990927;28;20847;-82
2022/07/20 05:45:05;;;;;;;0.73;0.60;;;29.80;85.60;;;;;;4991227;28;20438;-81
2022/07/20 05:47:32;;;;;;;0.80;0.80;;;29.80;84.20;;;;;;4987517;28;20595;-81
2022/07/20 05:49:58;;;;;;;0.73;0.73;;;29.90;85.00;;;;;;4985865;28;20435;-81
2022/07/20 05:52:25;;;;;;;0.60;0.60;;;30.30;84.60;;;;;;4985780;28;20525;-82
2022/07/20 05:54:52;;;;;;;0.70;0.70;;;30.00;83.80;;;;;;4974420;28;20526;-82
2022/07/20 05:57:19;;;;;;;0.80;0.80;;;30.20;83.60;;;;;;4976933;28;20808;-82
2022/07/20 05:59:46;;;;;;;0.60;0.60;;;30.30;83.70;;;;;;4975084;28;21020;-82
2022/07/20 06:02:13;;;;;;;0.90;0.70;;;30.80;83.30;;;;;;4984365;28;20445;-81
2022/07/20 06:04:39;;;;;;;0.70;0.70;;;31.20;82.70;;;;;;4983088;28;20916;-81
2022/07/20 06:07:09;;;;;;;0.70;0.70;;;31.50;82.50;;;;;;4983282;28;20446;-81
2022/07/20 06:09:37;;;;;;;0.70;0.70;;;31.40;81.50;;;;;;4986690;28;20485;-82
2022/07/20 06:12:04;;;;;;;0.95;0.95;;;31.50;81.90;;;;;;4985831;28;20434;-82
2022/07/20 06:14:31;;;;;;;0.95;0.70;;;31.70;82.10;;;;;;4980812;28;20655;-84
2022/07/20 06:17:00;;;;;;;0.80;0.80;;;31.80;81.40;;;;;;4978152;28;20440;-84
2022/07/20 06:19:27;;;;;;;0.70;0.70;;;31.90;81.40;;;;;;4982644;28;20500;-83
2022/07/20 06:22:01;;;;;;;0.73;0.73;;;32.20;80.50;;;;;;4970477;28;21183;-84
2022/07/20 06:24:27;;;;;;;0.80;0.80;;;32.60;80.70;;;;;;4950697;28;20448;-84
2022/07/20 06:26:54;;;;;;;0.80;0.80;;;32.40;79.60;;;;;;4961324;28;20802;-84
2022/07/20 06:29:21;;;;;;;0.80;0.80;;;32.50;80.30;;;;;;4980417;28;20937;-85
2022/07/20 06:31:48;;;;;;;0.75;0.75;;;32.80;81.10;;;;;;4988031;28;20529;-84
2022/07/20 06:34:37;;;;;;;0.73;0.73;;;32.80;80.10;;;;;;4959026;28;21032;-83
2022/07/20 06:37:05;;;;;;;0.70;0.70;;;33.40;81.40;;;;;;4975488;28;20454;-85
2022/07/20 06:39:31;;;;;;;0.70;0.70;;;33.70;78.90;;;;;;4975487;28;20918;-85
2022/07/20 06:41:58;;;;;;;0.90;0.90;;;33.50;78.20;;;;;;4974761;28;20438;-84
2022/07/20 06:44:25;;;;;;;0.60;0.60;;;33.60;78.30;;;;;;4969850;28;20444;-84
2022/07/20 06:46:52;;;;;;;0.63;0.63;;;33.00;79.00;;;;;;4978214;28;20430;-85
2022/07/20 06:49:24;;;;;;;0.95;0.95;;;33.10;80.10;;;;;;4988671;28;20501;-84
2022/07/20 06:51:51;;;;;;;0.75;0.75;;;33.30;79.10;;;;;;4979773;28;20999;-84
2022/07/20 06:54:18;;;;;;;0.70;0.70;;;33.40;79.60;;;;;;4982419;28;20438;-84
2022/07/20 06:56:45;;;;;;;0.77;0.77;;;33.50;80.20;;;;;;4985636;28;20514;-85
2022/07/20 06:59:12;;;;;;;0.68;0.68;;;33.80;79.50;;;;;;4979496;28;21250;-84
2022/07/20 07:01:39;;;;;;;1.50;1.50;;;34.20;78.30;;;;;;4984847;28;20448;-84
2022/07/20 07:04:06;;;;;;;0.90;0.90;;;34.40;78.60;;;;;;4979706;28;20848;-84
2022/07/20 07:06:34;;;;;;;0.73;0.73;;;34.30;79.00;;;;;;4982073;28;20441;-84
2022/07/20 07:09:04;;;;;;;0.82;0.82;;;34.50;79.00;;;;;;4977912;28;20461;-84
2022/07/20 07:11:30;;;;;;;0.80;0.80;;;34.40;77.80;;;;;;4975943;28;20437;-85
2022/07/20 07:13:57;;;;;;;0.80;0.80;;;34.30;79.10;;;;;;4980471;28;20440;-85
2022/07/20 07:16:25;;;;;;;0.63;0.63;;;34.60;78.60;;;;;;4983173;28;21049;-83
2022/07/20 07:18:55;;;;;;;1.00;1.00;;;35.10;77.70;;;;;;4972698;28;20521;-84
2022/07/20 07:21:23;;;;;;;0.80;0.80;;;35.30;76.60;;;;;;4988601;28;20434;-83
2022/07/20 07:23:49;;;;;;;0.70;0.70;;;35.20;77.10;;;;;;4979800;28;20440;-83
2022/07/20 07:26:20;;;;;;;0.60;0.60;;;34.70;76.70;;;;;;4991922;28;20925;-83
2022/07/20 07:28:47;;;;;;;0.80;0.80;;;34.80;77.90;;;;;;4970414;28;20932;-80
2022/07/20 07:31:18;;;;;;;0.70;0.70;;;35.00;79.00;;;;;;4986525;28;20430;-81
2022/07/20 07:33:46;;;;;;;0.60;0.60;;;35.30;76.20;;;;;;4985686;28;20465;-80
2022/07/20 07:36:13;;;;;;;0.73;0.73;;;35.60;76.60;;;;;;4988399;28;20522;-80
2022/07/20 07:38:40;;;;;;;0.80;0.70;;;35.90;77.90;;;;;;4980501;28;20444;-80
2022/07/20 07:41:08;;;;;;;0.75;0.75;;;35.80;74.70;;;;;;4987280;28;20452;-80
2022/07/20 07:43:35;;;;;;;0.70;0.70;;;35.80;75.20;;;;;;4987862;28;20438;-80
2022/07/20 07:46:02;;;;;;;0.70;0.70;;;36.30;75.10;;;;;;4984144;28;20442;-80
2022/07/20 07:48:28;;;;;;;0.73;0.73;;;36.60;74.00;;;;;;4994054;28;20465;-80
2022/07/20 07:50:55;;;;;;;0.63;0.63;;;36.80;73.40;;;;;;4991450;28;20801;-80
2022/07/20 07:53:24;;;;;;;0.70;0.70;;;37.40;73.00;;;;;;4987774;28;20429;-80
2022/07/20 07:55:58;;;;;;;0.90;0.90;;;37.60;74.00;;;;;;4989312;28;20518;-80
2022/07/20 07:58:25;;;;;;;0.88;0.88;;;37.60;73.10;;;;;;4981294;28;20444;-81
2022/07/20 08:00:54;;;;;;;0.80;0.80;;;36.30;72.70;;;;;;4986912;28;20437;-79
2022/07/20 08:03:22;;;;;;;0.80;0.80;;;36.00;71.40;;;;;;4989544;28;20874;-79
2022/07/20 08:05:54;;;;;;;0.65;0.65;;;36.00;73.40;;;;;;4988010;28;20797;-79
2022/07/20 08:08:24;;;;;;;0.60;0.60;;;36.30;73.30;;;;;;4987798;28;20448;-80
2022/07/20 08:10:51;;;;;;;0.70;0.70;;;36.60;73.30;;;;;;4993564;28;20432;-80
2022/07/20 08:13:18;;;;;;;0.90;0.90;;;36.60;73.40;;;;;;4985428;28;20438;-80
2022/07/20 08:15:45;;;;;;;0.63;0.63;;;36.40;73.80;;;;;;4972325;28;20525;-80
2022/07/20 08:18:18;;;;;;;0.70;0.70;;;36.60;74.30;;;;;;4986785;28;20459;-80
2022/07/20 08:20:45;;;;;;;0.90;0.90;;;37.20;74.30;;;;;;4982055;28;20848;-79
2022/07/20 08:23:12;;;;;;;0.93;0.80;;;37.70;72.20;;;;;;4969786;28;20820;-79
2022/07/20 08:25:39;;;;;;;0.80;0.80;;;37.60;71.70;;;;;;4982661;28;20513;-80
2022/07/20 08:28:12;;;;;;;0.80;0.80;;;37.20;71.90;;;;;;4987561;28;20456;-80
2022/07/20 08:30:41;;;;;;;0.65;0.65;;;37.50;71.70;;;;;;4988938;28;20470;-79
2022/07/20 08:33:20;;;;;;;0.80;0.80;;;36.90;71.20;;;;;;4994107;28;20445;-79
2022/07/20 08:35:47;;;;;;;0.60;0.60;;;37.00;74.10;;;;;;4986180;28;20438;-80
2022/07/20 08:38:14;;;;;;;0.88;0.88;;;36.90;72.20;;;;;;4988852;28;20529;-79
2022/07/20 08:40:41;;;;;;;0.80;0.80;;;37.30;72.10;;;;;;4970266;28;20955;-80
2022/07/20 08:43:07;;;;;;;0.80;0.80;;;36.70;72.20;;;;;;4987282;28;21096;-80
2022/07/20 08:45:35;;;;;;;0.95;0.95;;;37.20;73.70;;;;;;4987503;28;21101;-80
2022/07/20 08:48:04;;;;;;;0.70;0.70;;;37.60;74.60;;;;;;4971704;28;20897;-80
2022/07/20 08:50:32;;;;;;;0.70;0.70;;;37.20;72.80;;;;;;4987814;28;20434;-80
2022/07/20 08:53:00;;;;;;;0.73;0.73;;;36.80;74.30;;;;;;4986811;28;20893;-80
2022/07/20 08:55:27;;;;;;;0.70;0.70;;;36.70;75.10;;;;;;4987883;28;20451;-80
2022/07/20 08:57:54;;;;;;;0.73;0.73;;;36.90;72.80;;;;;;4989223;28;20442;-80
2022/07/20 09:00:22;;;;;;;0.65;0.65;;;37.50;73.10;;;;;;4987537;28;20464;-80
2022/07/20 09:02:57;;;;;;;0.80;0.80;;;37.80;71.70;;;;;;4983926;28;20441;-80
2022/07/20 09:05:25;;;;;;;0.90;0.90;;;38.10;71.70;;;;;;4964832;28;20975;-80
2022/07/20 09:07:54;;;;;;;0.80;0.80;;;37.60;73.80;;;;;;4987204;28;20458;-81
2022/07/20 09:10:42;;;;;;;0.73;0.73;;;37.70;72.40;;;;;;4987849;28;21169;-80
2022/07/20 09:13:18;;;;;;;0.80;0.80;;;37.50;73.80;;;;;;4987760;28;20434;-80
2022/07/20 09:15:47;;;;;;;0.80;0.80;;;37.70;74.00;;;;;;4986116;28;20464;-80
2022/07/20 09:18:20;;;;;;;0.73;0.73;;;37.00;70.30;;;;;;4987538;28;20487;-80
2022/07/20 09:20:49;;;;;;;0.70;0.70;;;36.90;71.50;;;;;;4986282;28;20464;-80
2022/07/20 09:23:20;;;;;;;0.88;0.88;;;37.20;73.10;;;;;;4988200;28;20430;-80
2022/07/20 09:25:57;;;;;;;0.80;0.80;;;37.60;71.60;;;;;;4986963;28;20434;-81
2022/07/20 09:28:46;;;;;;;0.80;0.80;;;37.50;69.80;;;;;;4986372;28;20437;-81
2022/07/20 09:31:18;;;;;;;0.87;0.87;;;37.60;70.60;;;;;;4986436;28;20461;-81
2022/07/20 09:33:58;;;;;;;0.82;0.82;;;37.70;70.60;;;;;;4987641;28;20426;-81
2022/07/20 09:36:27;;;;;;;0.80;0.80;;;37.40;69.30;;;;;;4983201;28;20434;-80
2022/07/20 09:39:04;;;;;;;0.90;0.90;;;36.90;70.60;;;;;;4983902;28;20959;-81
2022/07/20 09:41:33;;;;;;;0.95;0.95;;;36.70;71.20;;;;;;4985154;28;20816;-81
2022/07/20 09:44:01;;;;;;;0.75;0.75;;;37.30;70.70;;;;;;4985271;28;20442;-81
2022/07/20 09:46:34;;;;;;;0.90;0.90;;;37.30;71.00;;;;;;4985701;28;20442;-80
2022/07/20 09:49:09;;;;;;;0.90;0.90;;;37.10;72.70;;;;;;4985877;28;20987;-80
2022/07/20 09:51:47;;;;;;;0.80;0.80;;;37.50;73.50;;;;;;4984112;28;20448;-81
2022/07/20 09:54:16;;;;;;;1.10;1.10;;;38.00;72.20;;;;;;4980564;28;20758;-80
2022/07/20 09:56:49;;;;;;;0.90;0.90;;;38.60;71.60;;;;;;4984154;28;20553;-80
2022/07/20 09:59:17;;;;;;;0.88;0.88;;;38.80;70.70;;;;;;4986978;28;20469;-80
2022/07/20 10:01:46;;;;;;;0.93;0.93;;;38.80;71.00;;;;;;4990568;28;20462;-80
2022/07/20 10:04:14;;;;;;;1.00;1.00;;;38.90;71.80;;;;;;4986948;28;20490;-81
2022/07/20 10:06:43;;;;;;;0.80;0.80;;;38.70;70.00;;;;;;4985233;28;20525;-80
2022/07/20 10:09:11;;;;;;;1.08;1.08;;;38.60;72.10;;;;;;4986472;28;20570;-80
2022/07/20 10:11:37;;;;;;;1.02;1.02;;;38.70;71.00;;;;;;4988050;28;20473;-80
2022/07/20 10:14:05;;;;;;;1.13;1.13;;;38.90;69.90;;;;;;4979716;28;20833;-80
2022/07/20 10:16:53;;;;;;;0.90;0.90;;;39.00;71.40;;;;;;4984406;28;20821;-80
2022/07/20 10:19:39;;;;;;;0.98;0.98;;;38.60;70.20;;;;;;4987774;28;20533;-81
2022/07/20 10:22:09;;;;;;;1.13;1.13;;;38.60;70.50;;;;;;4987002;28;20442;-80
2022/07/20 10:24:38;;;;;;;1.23;1.23;;;38.20;69.60;;;;;;4968604;28;20458;-80
2022/07/20 10:27:08;;;;;;;0.90;0.90;;;38.20;70.00;;;;;;4980132;28;20442;-80
2022/07/20 10:29:36;;;;;;;0.95;0.95;;;38.10;70.30;;;;;;4987019;28;20448;-80
2022/07/20 10:32:09;;;;;;;0.90;0.90;;;38.40;70.50;;;;;;4985213;28;20434;-80
2022/07/20 10:34:59;;;;;;;0.95;0.95;;;38.60;71.80;;;;;;4973960;28;20440;-80
2022/07/20 10:37:39;;;;;;;1.00;1.00;;;38.80;71.20;;;;;;4979895;28;20440;-80
2022/07/20 10:40:11;;;;;;;0.82;0.82;;;39.10;69.80;;;;;;4986790;28;20600;-80
2022/07/20 10:42:45;;;;;;;1.20;1.20;;;38.90;68.30;;;;;;4980858;28;20430;-80
2022/07/20 10:45:36;;;;;;;0.97;0.97;;;38.90;70.30;;;;;;4985473;28;20846;-80
2022/07/20 10:48:17;;;;;;;0.88;0.88;;;38.10;70.50;;;;;;4984107;28;20517;-79
2022/07/20 10:50:48;;;;;;;0.95;0.95;;;37.30;70.80;;;;;;4977978;28;20440;-80
2022/07/20 10:53:17;;;;;;;0.80;0.80;;;37.20;71.10;;;;;;4978026;28;20434;-80
2022/07/20 10:55:58;;;;;;;0.87;0.83;;;37.10;72.70;;;;;;4983385;28;20877;-79
2022/07/20 10:58:31;;;;;;;0.85;0.85;;;37.00;70.80;;;;;;4985648;28;20641;-80
2022/07/20 11:01:12;;;;;;;1.10;1.10;;;37.30;72.10;;;;;;4974366;28;20446;-79
2022/07/20 11:03:43;;;;;;;0.80;0.80;;;37.90;69.60;;;;;;4982273;28;20442;-79
2022/07/20 11:06:15;;;;;;;0.90;0.90;;;38.10;69.30;;;;;;4980762;28;20437;-80
2022/07/20 11:08:57;;;;;;;0.90;0.90;;;38.40;69.40;;;;;;4984049;28;20434;-80
2022/07/20 11:11:27;;;;;;;0.87;0.87;;;38.50;70.00;;;;;;4987628;28;20949;-80
2022/07/20 11:13:54;;;;;;;0.90;0.90;;;38.10;69.60;;;;;;4979844;28;20451;-81
2022/07/20 11:16:24;;;;;;;0.90;0.90;;;38.30;69.40;;;;;;4982027;28;20446;-80
2022/07/20 11:18:52;;;;;;;1.00;1.00;;;38.00;70.90;;;;;;4980721;28;20442;-79
2022/07/20 11:21:43;;;;;;;0.90;0.90;;;37.40;70.20;;;;;;4984038;28;20449;-79
2022/07/20 11:24:30;;;;;;;0.93;0.93;;;37.70;71.50;;;;;;4986936;28;20440;-80
2022/07/20 11:26:57;;;;;;;1.10;1.10;;;37.00;71.30;;;;;;4982619;28;20430;-79
2022/07/20 11:29:25;;;;;;;0.82;0.82;;;37.10;70.70;;;;;;4981181;28;20948;-80
2022/07/20 11:31:52;;;;;;;0.90;0.90;;;37.50;72.10;;;;;;4979108;28;20430;-80
2022/07/20 11:34:19;;;;;;;0.90;0.90;;;37.50;71.00;;;;;;4962432;28;20467;-80
2022/07/20 11:36:48;;;;;;;1.00;1.00;;;37.70;70.60;;;;;;4965220;28;20747;-80
2022/07/20 11:39:17;;;;;;;0.90;0.90;;;37.60;70.50;;;;;;4977976;28;20643;-80
2022/07/20 11:41:44;;;;;;;0.90;0.90;;;37.80;69.80;;;;;;4983078;28;20438;-79
2022/07/20 11:44:20;;;;;;;0.90;0.90;;;37.50;70.30;;;;;;4980379;28;20494;-80
2022/07/20 11:46:50;;;;;;;0.80;0.80;;;37.50;69.20;;;;;;4986395;28;20493;-80
2022/07/20 11:49:18;;;;;;;0.90;0.90;;;38.20;69.60;;;;;;4983720;28;20441;-80
2022/07/20 11:52:05;;;;;;;1.00;1.00;;;38.50;68.70;;;;;;4985431;28;20441;-81
2022/07/20 11:54:37;;;;;;;0.90;0.90;;;38.80;70.00;;;;;;4979926;28;20918;-80
2022/07/20 11:57:06;;;;;;;0.90;0.85;;;37.90;69.90;;;;;;4982176;28;20437;-79
2022/07/20 11:59:34;;;;;;;1.10;1.10;;;38.00;69.00;;;;;;4981983;28;20438;-80
2022/07/20 12:02:02;;;;;;;0.70;0.70;;;38.20;69.40;;;;;;4981200;28;20533;-80
2022/07/20 12:04:35;;;;;;;0.80;0.80;;;38.00;68.60;;;;;;4986316;28;20434;-79
2022/07/20 12:08:07;;;;;;;0.95;0.95;;;38.30;68.30;;;;;;4989220;28;20485;-80
2022/07/20 12:09:49;;;;;;;0.90;0.90;;;38.50;69.60;;;;;;4988002;28;20473;-79
2022/07/20 12:15:12;;;;;;;0.88;0.88;;;38.90;67.10;;;;;;4980634;28;21176;-79
2022/07/20 12:17:51;;;;;;;1.00;1.00;;;38.60;67.40;;;;;;4985316;28;20449;-79
2022/07/20 12:20:24;;;;;;;1.00;0.75;;;38.50;67.50;;;;;;4986397;28;20457;-79
2022/07/20 12:22:52;;;;;;;0.90;0.90;;;38.80;68.70;;;;;;4988622;28;20444;-79
2022/07/20 12:25:19;;;;;;;0.90;0.90;;;38.90;68.30;;;;;;4988965;28;20440;-80
2022/07/20 12:27:47;;;;;;;0.98;0.98;;;38.20;69.70;;;;;;4983245;28;20991;-79
2022/07/20 12:30:34;;;;;;;1.15;1.15;;;38.00;67.70;;;;;;4983646;28;20850;-80
2022/07/20 12:33:12;;;;;;;0.98;0.98;;;37.80;67.80;;;;;;4986178;28;20433;-79
2022/07/20 12:35:43;;;;;;;0.98;0.98;;;38.10;67.80;;;;;;4985782;28;20434;-79
2022/07/20 12:38:11;;;;;;;0.95;0.95;;;38.70;67.90;;;;;;4986628;28;20431;-80
2022/07/20 12:40:46;;;;;;;1.08;1.08;;;39.30;67.90;;;;;;4969410;28;20433;-79
2022/07/20 12:43:36;;;;;;;0.93;0.93;;;39.80;66.60;;;;;;4987606;28;20465;-79
2022/07/20 12:46:07;;;;;;;1.17;1.17;;;40.00;65.30;;;;;;4979577;28;20933;-79
2022/07/20 12:48:35;;;;;;;1.00;1.00;;;40.20;66.20;;;;;;4973024;28;20441;-80
2022/07/20 12:51:02;;;;;;;0.93;0.93;;;40.20;65.70;;;;;;4968443;28;20430;-80
2022/07/20 12:53:29;;;;;;;1.05;1.05;;;40.20;66.10;;;;;;4969906;28;20461;-79
2022/07/20 12:55:56;;;;;;;1.00;1.00;;;40.00;64.90;;;;;;4987458;28;20434;-80
2022/07/20 12:58:23;;;;;;;1.00;1.00;;;39.40;66.30;;;;;;4987446;28;20438;-80
2022/07/20 13:00:50;;;;;;;1.10;1.10;;;39.40;66.80;;;;;;4965908;28;20430;-79
2022/07/20 13:03:20;;;;;;;1.10;1.10;;;39.80;67.80;;;;;;4979616;28;20529;-80
2022/07/20 13:05:47;;;;;;;0.93;0.93;;;40.20;65.60;;;;;;4994970;28;20517;-80
2022/07/20 13:08:14;;;;;;;0.90;0.90;;;40.20;65.70;;;;;;4962812;28;20848;-80